Terminal Aerodrome Forecast
Issued by NWS

Home | Current Version | Previous Version | Text Only | Print | Product List | Glossary Off
Versions: 1 2 3 4 5 6 7 8 9 10 11 12 13 14 15 16 17 18 19 20 21 22

000
FTUS43 KTOP 212300
TAFFOE
TAF
KFOE 212323Z 2200/2224 14005KT 3SM -DZ BR OVC008
      TEMPO 2203/2207 1/4SM -DZ FG OVC002
     FM220800 19006KT 1SM -DZ BR OVC008
     FM221600 19010KT 5SM BR SCT015 BKN025=

USA.gov is the U.S. government's official web portal to all federal, state and local government web resources and services.